Time;durP1;ratioP1;P1;durP2;ratioP2;P2;SDS_P1;SDS_P2;PMS_P1;PMS_P2;Temp;Humidity;BMP_temperature;BMP_pressure;BME280_temperature;BME280_humidity;BME280_pressure;Samples;Min_cycle;Max_cycle;Signal;HPM_P1;HPM_P2
2023/01/30 00:00:24;;;;;;;18.50;12.00;;;;;;;;;;5056925;28;20404;-80
2023/01/30 00:02:50;;;;;;;21.10;12.20;;;;;;;;;;5057931;28;20495;-80
2023/01/30 00:05:16;;;;;;;21.17;11.97;;;;;;;;;;5057300;28;20184;-79
2023/01/30 00:07:42;;;;;;;24.77;13.73;;;;;;;;;;5056101;28;20475;-79
2023/01/30 00:10:08;;;;;;;23.20;12.40;;;;;;;;;;5039857;28;20230;-79
2023/01/30 00:12:34;;;;;;;16.38;10.32;;;;;;;;;;5056239;28;20829;-79
2023/01/30 00:15:00;;;;;;;23.70;14.03;;;;;;;;;;5056247;28;20173;-80
2023/01/30 00:17:26;;;;;;;26.57;14.23;;;;;;;;;;5039798;28;20923;-80
2023/01/30 00:19:52;;;;;;;15.23;9.10;;;;;;;;;;5057270;28;20416;-79
2023/01/30 00:22:18;;;;;;;22.10;14.00;;;;;;;;;;5057210;28;20407;-79
2023/01/30 00:24:44;;;;;;;17.80;11.63;;;;;;;;;;5056379;28;20791;-80
2023/01/30 00:27:10;;;;;;;23.20;14.47;;;;;;;;;;5057455;28;20175;-79
2023/01/30 00:29:36;;;;;;;27.02;16.48;;;;;;;;;;5057502;28;20858;-79
2023/01/30 00:32:02;;;;;;;22.75;10.63;;;;;;;;;;5056134;28;20277;-79
2023/01/30 00:34:28;;;;;;;22.23;12.70;;;;;;;;;;5055809;28;20185;-80
2023/01/30 00:36:54;;;;;;;26.98;15.95;;;;;;;;;;5038899;28;20529;-79
2023/01/30 00:39:20;;;;;;;27.57;14.63;;;;;;;;;;5055782;28;20187;-80
2023/01/30 00:47:15;;;;;;;25.75;16.55;;;;;;;;;;5055952;28;20288;-80
2023/01/30 00:49:41;;;;;;;26.40;13.80;;;;;;;;;;5055621;28;20174;-79
2023/01/30 00:52:07;;;;;;;28.40;14.63;;;;;;;;;;5056610;28;20791;-80
2023/01/30 00:54:33;;;;;;;22.15;14.93;;;;;;;;;;5055578;28;20181;-79
2023/01/30 00:56:59;;;;;;;30.00;16.50;;;;;;;;;;5055286;28;20246;-79
2023/01/30 00:59:26;;;;;;;20.67;11.75;;;;;;;;;;5038460;28;20280;-79
2023/01/30 01:01:52;;;;;;;22.33;12.77;;;;;;;;;;5055213;28;20174;-79
2023/01/30 01:04:18;;;;;;;22.75;14.85;;;;;;;;;;5055363;28;20239;-80
2023/01/30 01:06:44;;;;;;;24.92;14.52;;;;;;;;;;5056249;28;20225;-79
2023/01/30 01:09:10;;;;;;;24.77;13.30;;;;;;;;;;5038973;28;20662;-79
2023/01/30 01:11:36;;;;;;;25.63;15.20;;;;;;;;;;5038124;28;20275;-79
2023/01/30 01:14:03;;;;;;;24.20;14.10;;;;;;;;;;5055164;28;20448;-79
2023/01/30 01:16:31;;;;;;;24.88;13.98;;;;;;;;;;5054588;28;20641;-80
2023/01/30 01:18:57;;;;;;;23.35;14.20;;;;;;;;;;5056961;28;20184;-79
2023/01/30 01:21:23;;;;;;;24.38;15.10;;;;;;;;;;5055169;28;20222;-80
2023/01/30 01:23:50;;;;;;;25.63;14.90;;;;;;;;;;5056215;28;20208;-79
2023/01/30 01:26:16;;;;;;;26.67;14.57;;;;;;;;;;5056253;28;20713;-81
2023/01/30 01:28:42;;;;;;;26.25;16.65;;;;;;;;;;5055562;28;20177;-79
2023/01/30 01:31:09;;;;;;;26.27;16.15;;;;;;;;;;5056090;28;20170;-79
2023/01/30 01:33:35;;;;;;;24.58;16.10;;;;;;;;;;5054835;28;20181;-80
2023/01/30 01:36:02;;;;;;;24.45;13.73;;;;;;;;;;5055698;28;20225;-79
2023/01/30 01:38:28;;;;;;;22.33;13.07;;;;;;;;;;5054554;28;20261;-80
2023/01/30 01:41:04;;;;;;;28.05;15.98;;;;;;;;;;5054844;28;20552;-79
2023/01/30 01:43:33;;;;;;;23.40;13.75;;;;;;;;;;5039549;28;20258;-79
2023/01/30 01:46:10;;;;;;;26.05;14.98;;;;;;;;;;5054325;28;20558;-79
2023/01/30 01:48:46;;;;;;;31.67;15.45;;;;;;;;;;5054673;28;20180;-80
2023/01/30 01:51:16;;;;;;;23.40;13.40;;;;;;;;;;5054694;28;20165;-79
2023/01/30 01:53:46;;;;;;;20.77;12.73;;;;;;;;;;5054548;28;20630;-79
2023/01/30 01:56:14;;;;;;;24.52;13.77;;;;;;;;;;5054841;28;20201;-79
2023/01/30 01:58:50;;;;;;;24.73;12.05;;;;;;;;;;5055685;28;20173;-79
2023/01/30 02:01:16;;;;;;;22.42;13.55;;;;;;;;;;5056162;28;20164;-79
2023/01/30 02:03:45;;;;;;;21.23;13.20;;;;;;;;;;5054930;28;20193;-79
2023/01/30 02:06:11;;;;;;;27.02;14.95;;;;;;;;;;5055257;28;20178;-80
2023/01/30 02:08:39;;;;;;;23.77;14.27;;;;;;;;;;5055130;28;20606;-80
2023/01/30 02:11:24;;;;;;;23.95;15.18;;;;;;;;;;5056045;28;20227;-79
2023/01/30 02:13:50;;;;;;;31.33;15.93;;;;;;;;;;5055572;28;20170;-79
2023/01/30 02:16:16;;;;;;;24.83;13.43;;;;;;;;;;5054754;28;20550;-79
2023/01/30 02:18:43;;;;;;;20.92;11.57;;;;;;;;;;5054885;28;20588;-79
2023/01/30 02:21:21;;;;;;;22.77;13.75;;;;;;;;;;5054575;28;20181;-79
2023/01/30 02:23:56;;;;;;;25.48;14.80;;;;;;;;;;5054587;28;20536;-79
2023/01/30 02:26:34;;;;;;;28.73;14.05;;;;;;;;;;5055637;28;20181;-79
2023/01/30 02:29:27;;;;;;;26.13;14.40;;;;;;;;;;5055843;28;20174;-79
2023/01/30 02:32:18;;;;;;;21.67;13.60;;;;;;;;;;5053946;28;20531;-79
2023/01/30 02:34:56;;;;;;;25.40;15.00;;;;;;;;;;5055290;28;20158;-79
2023/01/30 02:37:31;;;;;;;22.85;14.45;;;;;;;;;;5055166;28;20271;-79
2023/01/30 02:40:03;;;;;;;28.67;14.75;;;;;;;;;;5054370;28;20184;-79
2023/01/30 02:42:33;;;;;;;29.90;15.27;;;;;;;;;;5054098;28;20177;-79
2023/01/30 02:45:25;;;;;;;23.75;15.80;;;;;;;;;;5059077;28;20253;-79
2023/01/30 02:47:55;;;;;;;24.85;16.27;;;;;;;;;;5054897;28;20193;-79
2023/01/30 02:50:40;;;;;;;26.30;14.07;;;;;;;;;;5057953;28;20178;-81
2023/01/30 02:53:06;;;;;;;25.33;15.40;;;;;;;;;;5057391;28;20197;-79
2023/01/30 02:55:32;;;;;;;23.88;15.13;;;;;;;;;;5057646;28;20212;-79
2023/01/30 02:57:58;;;;;;;35.78;18.10;;;;;;;;;;5057638;28;20655;-80
2023/01/30 03:00:46;;;;;;;27.55;17.50;;;;;;;;;;5058878;28;20204;-81
2023/01/30 03:03:19;;;;;;;26.98;14.63;;;;;;;;;;5041320;28;20170;-80
2023/01/30 03:05:48;;;;;;;26.23;12.82;;;;;;;;;;5057252;28;20197;-79
2023/01/30 03:08:19;;;;;;;29.45;16.10;;;;;;;;;;5057401;28;20236;-79
2023/01/30 03:10:51;;;;;;;22.02;12.77;;;;;;;;;;5058358;28;20207;-79
2023/01/30 03:13:27;;;;;;;24.33;14.25;;;;;;;;;;5058371;28;20224;-79
2023/01/30 03:16:02;;;;;;;22.65;12.43;;;;;;;;;;5056850;28;20201;-79
2023/01/30 03:18:28;;;;;;;29.52;16.52;;;;;;;;;;5057081;28;20222;-79
2023/01/30 03:20:54;;;;;;;17.42;10.18;;;;;;;;;;5057157;28;20177;-79
2023/01/30 03:23:20;;;;;;;25.35;15.18;;;;;;;;;;5057924;28;20186;-79
2023/01/30 03:25:47;;;;;;;27.85;15.55;;;;;;;;;;5040645;28;20264;-79
2023/01/30 03:28:14;;;;;;;26.83;15.25;;;;;;;;;;5057298;28;20268;-79
2023/01/30 03:30:40;;;;;;;31.15;15.98;;;;;;;;;;5056897;28;20180;-79
2023/01/30 03:33:06;;;;;;;24.35;12.80;;;;;;;;;;5058742;28;20178;-79
2023/01/30 03:35:32;;;;;;;28.83;16.88;;;;;;;;;;5039984;28;20208;-80
2023/01/30 03:37:58;;;;;;;26.80;14.23;;;;;;;;;;5040193;28;20177;-79
2023/01/30 03:40:24;;;;;;;25.60;15.23;;;;;;;;;;5058449;28;20252;-80
2023/01/30 03:42:50;;;;;;;22.80;15.68;;;;;;;;;;5040229;28;20208;-80
2023/01/30 03:45:16;;;;;;;21.40;13.40;;;;;;;;;;5056886;28;20220;-80
2023/01/30 03:47:42;;;;;;;22.55;14.00;;;;;;;;;;5056064;28;20420;-80
2023/01/30 03:50:09;;;;;;;26.25;14.55;;;;;;;;;;5056627;28;20228;-80
2023/01/30 03:52:35;;;;;;;19.20;12.70;;;;;;;;;;5055882;28;20177;-80
2023/01/30 03:55:01;;;;;;;23.52;11.88;;;;;;;;;;5055507;28;20192;-80
2023/01/30 03:57:27;;;;;;;20.52;11.48;;;;;;;;;;5056840;28;20584;-80
2023/01/30 03:59:53;;;;;;;18.23;11.50;;;;;;;;;;5055972;28;20185;-80
2023/01/30 04:02:21;;;;;;;18.95;12.48;;;;;;;;;;5057083;28;20431;-80
2023/01/30 04:04:48;;;;;;;14.40;8.63;;;;;;;;;;5039000;28;20738;-80
2023/01/30 04:07:13;;;;;;;25.20;11.20;;;;;;;;;;5057009;28;20236;-80
2023/01/30 04:09:39;;;;;;;18.07;10.93;;;;;;;;;;5055346;28;20174;-80
2023/01/30 04:12:06;;;;;;;18.60;12.10;;;;;;;;;;5057105;28;20400;-80
2023/01/30 04:14:32;;;;;;;20.08;11.00;;;;;;;;;;5038847;28;20434;-80
2023/01/30 04:16:59;;;;;;;14.75;10.05;;;;;;;;;;5056303;28;20241;-80
2023/01/30 04:19:25;;;;;;;20.40;12.37;;;;;;;;;;5039302;28;20232;-80
2023/01/30 04:21:51;;;;;;;16.20;10.68;;;;;;;;;;5055388;28;20403;-80
2023/01/30 04:24:17;;;;;;;24.00;13.00;;;;;;;;;;5055278;28;20254;-80
2023/01/30 04:26:43;;;;;;;22.75;11.90;;;;;;;;;;5038655;28;20470;-80
2023/01/30 04:29:09;;;;;;;17.65;9.30;;;;;;;;;;5055398;28;20177;-79
2023/01/30 04:31:35;;;;;;;22.60;14.10;;;;;;;;;;5056838;28;20185;-80
2023/01/30 04:34:00;;;;;;;13.00;9.00;;;;;;;;;;5039605;28;20831;-79
2023/01/30 04:36:28;;;;;;;20.20;11.50;;;;;;;;;;5057205;28;20487;-79
2023/01/30 04:38:56;;;;;;;20.73;11.52;;;;;;;;;;5056775;28;20411;-80
2023/01/30 04:41:22;;;;;;;20.58;14.10;;;;;;;;;;5055973;28;20174;-79
2023/01/30 04:43:47;;;;;;;22.20;13.07;;;;;;;;;;5055196;28;20236;-80
2023/01/30 04:46:14;;;;;;;21.90;12.90;;;;;;;;;;5055477;28;20404;-80
2023/01/30 04:48:40;;;;;;;18.38;9.75;;;;;;;;;;5054906;28;20412;-79
2023/01/30 04:51:06;;;;;;;20.80;12.67;;;;;;;;;;5054875;28;20170;-80
2023/01/30 04:53:32;;;;;;;23.30;14.80;;;;;;;;;;5038435;28;20498;-80
2023/01/30 04:55:57;;;;;;;23.35;15.32;;;;;;;;;;5039061;28;20213;-80
2023/01/30 04:58:24;;;;;;;25.10;14.50;;;;;;;;;;5055588;28;20182;-80
2023/01/30 05:00:49;;;;;;;21.88;14.32;;;;;;;;;;5054430;28;20412;-80
2023/01/30 05:03:16;;;;;;;20.73;13.57;;;;;;;;;;5038267;28;20183;-80
2023/01/30 05:05:42;;;;;;;18.00;11.70;;;;;;;;;;5055765;28;20411;-79
2023/01/30 05:08:08;;;;;;;27.90;14.98;;;;;;;;;;5055127;28;20233;-80
2023/01/30 05:10:34;;;;;;;22.58;14.13;;;;;;;;;;5056195;28;20178;-80
2023/01/30 05:13:04;;;;;;;24.23;15.50;;;;;;;;;;5038621;28;20184;-79
2023/01/30 05:15:31;;;;;;;23.65;13.63;;;;;;;;;;5054331;28;20755;-81
2023/01/30 05:17:57;;;;;;;25.27;15.68;;;;;;;;;;5056260;28;20671;-80
2023/01/30 05:20:23;;;;;;;25.90;16.10;;;;;;;;;;5054999;28;20186;-80
2023/01/30 05:22:48;;;;;;;22.52;13.88;;;;;;;;;;5055512;28;20848;-81
2023/01/30 05:25:15;;;;;;;24.00;10.90;;;;;;;;;;5038325;28;20224;-80
2023/01/30 05:27:41;;;;;;;27.73;13.73;;;;;;;;;;5054644;28;20477;-80
2023/01/30 05:30:07;;;;;;;21.38;14.80;;;;;;;;;;5055229;28;20178;-80
2023/01/30 05:32:33;;;;;;;25.95;15.00;;;;;;;;;;5038021;28;20220;-81
2023/01/30 05:34:59;;;;;;;21.87;14.87;;;;;;;;;;5056169;28;20533;-80
2023/01/30 05:37:25;;;;;;;21.93;13.73;;;;;;;;;;5055174;28;20574;-80
2023/01/30 05:39:51;;;;;;;24.60;12.82;;;;;;;;;;5054288;28;20466;-80
2023/01/30 05:42:17;;;;;;;22.10;13.53;;;;;;;;;;5037689;28;20173;-80
2023/01/30 05:44:43;;;;;;;24.43;16.50;;;;;;;;;;5054380;28;20503;-80
2023/01/30 05:47:09;;;;;;;21.70;12.88;;;;;;;;;;5055855;28;20409;-79
2023/01/30 05:49:35;;;;;;;26.88;15.13;;;;;;;;;;5054385;28;20185;-80
2023/01/30 05:52:01;;;;;;;21.73;10.93;;;;;;;;;;5054866;28;20232;-79
2023/01/30 05:54:27;;;;;;;20.27;14.63;;;;;;;;;;5056052;28;20169;-80
2023/01/30 05:56:53;;;;;;;21.30;13.60;;;;;;;;;;5054784;28;20454;-80
2023/01/30 05:59:19;;;;;;;25.07;14.33;;;;;;;;;;5054324;28;20400;-79
2023/01/30 06:01:46;;;;;;;23.80;14.43;;;;;;;;;;5055500;28;20402;-79
2023/01/30 06:04:12;;;;;;;19.30;13.27;;;;;;;;;;5055882;28;20196;-80
2023/01/30 06:06:37;;;;;;;21.02;14.05;;;;;;;;;;5054444;28;20225;-80
2023/01/30 06:09:03;;;;;;;20.10;11.90;;;;;;;;;;5054130;28;20227;-80
2023/01/30 06:11:29;;;;;;;20.20;11.80;;;;;;;;;;5054351;28;20420;-79
2023/01/30 06:13:55;;;;;;;21.55;12.77;;;;;;;;;;5054817;28;20428;-79
2023/01/30 06:16:21;;;;;;;24.33;12.00;;;;;;;;;;5037865;28;20209;-79
2023/01/30 06:18:47;;;;;;;17.80;11.77;;;;;;;;;;5057421;28;20416;-79
2023/01/30 06:21:14;;;;;;;19.75;12.35;;;;;;;;;;5042018;28;20419;-79
2023/01/30 06:23:40;;;;;;;20.10;11.38;;;;;;;;;;5059192;28;20173;-79
2023/01/30 06:26:06;;;;;;;17.00;10.30;;;;;;;;;;5059695;28;20233;-79
2023/01/30 06:28:32;;;;;;;19.05;9.27;;;;;;;;;;5041832;28;20284;-79
2023/01/30 06:30:58;;;;;;;18.27;9.25;;;;;;;;;;5059075;28;20173;-79
2023/01/30 06:33:24;;;;;;;13.27;9.50;;;;;;;;;;5041568;28;20622;-79
2023/01/30 06:35:51;;;;;;;15.90;11.10;;;;;;;;;;5057344;28;20586;-79
2023/01/30 06:38:17;;;;;;;16.33;9.40;;;;;;;;;;5058333;28;20181;-79
2023/01/30 06:40:47;;;;;;;16.60;10.30;;;;;;;;;;5059233;28;20165;-79
2023/01/30 06:43:13;;;;;;;17.13;10.50;;;;;;;;;;5057957;28;20182;-79
2023/01/30 06:45:39;;;;;;;14.20;10.60;;;;;;;;;;5057703;28;20184;-80
2023/01/30 06:48:06;;;;;;;13.50;9.82;;;;;;;;;;5041399;28;20186;-80
2023/01/30 06:50:32;;;;;;;13.55;9.52;;;;;;;;;;5059334;28;20181;-79
2023/01/30 06:53:00;;;;;;;14.50;10.82;;;;;;;;;;5056995;28;20177;-79
2023/01/30 06:55:27;;;;;;;16.50;11.52;;;;;;;;;;5057235;28;20185;-79
2023/01/30 06:58:10;;;;;;;17.33;11.35;;;;;;;;;;5057068;28;20315;-80
2023/01/30 07:00:38;;;;;;;14.38;9.93;;;;;;;;;;5056724;28;20253;-81
2023/01/30 07:03:04;;;;;;;17.50;9.48;;;;;;;;;;5058499;28;20169;-79
2023/01/30 07:05:30;;;;;;;16.38;10.68;;;;;;;;;;5058221;28;20184;-79
2023/01/30 07:07:56;;;;;;;11.57;9.07;;;;;;;;;;5058404;28;20391;-79
2023/01/30 07:10:24;;;;;;;17.15;11.85;;;;;;;;;;5041007;28;20280;-79
2023/01/30 07:12:51;;;;;;;20.15;10.68;;;;;;;;;;5057965;28;20264;-79
2023/01/30 07:15:17;;;;;;;18.10;12.70;;;;;;;;;;5039959;28;20192;-79
2023/01/30 07:17:43;;;;;;;16.50;11.35;;;;;;;;;;5023910;28;20177;-80
2023/01/30 07:20:10;;;;;;;16.02;10.77;;;;;;;;;;5040911;28;20652;-79
2023/01/30 07:22:36;;;;;;;20.73;12.27;;;;;;;;;;5040571;28;20533;-79
2023/01/30 07:25:02;;;;;;;13.20;9.10;;;;;;;;;;5039849;28;20169;-79
2023/01/30 07:27:28;;;;;;;14.45;10.85;;;;;;;;;;5058494;28;20400;-80
2023/01/30 07:29:54;;;;;;;17.23;10.95;;;;;;;;;;5039958;28;20626;-79
2023/01/30 07:32:20;;;;;;;17.30;10.07;;;;;;;;;;5058312;28;20170;-80
2023/01/30 07:34:46;;;;;;;19.88;11.23;;;;;;;;;;5039766;28;20420;-80
2023/01/30 07:37:12;;;;;;;15.68;11.88;;;;;;;;;;5056888;28;20754;-80
2023/01/30 07:39:38;;;;;;;17.55;11.73;;;;;;;;;;5039653;28;20177;-81
2023/01/30 07:42:05;;;;;;;17.92;10.25;;;;;;;;;;5023523;28;20207;-79
2023/01/30 07:44:32;;;;;;;12.32;9.13;;;;;;;;;;5040079;28;20277;-79
2023/01/30 07:46:59;;;;;;;19.70;11.50;;;;;;;;;;5057900;28;20208;-79
2023/01/30 07:49:25;;;;;;;14.20;8.95;;;;;;;;;;5057967;28;20243;-79
2023/01/30 07:51:51;;;;;;;15.93;11.13;;;;;;;;;;5057534;28;20170;-80
2023/01/30 07:54:18;;;;;;;15.65;11.23;;;;;;;;;;5057836;28;20265;-80
2023/01/30 07:56:44;;;;;;;17.52;10.93;;;;;;;;;;5039162;28;20224;-80
2023/01/30 07:59:10;;;;;;;10.43;8.73;;;;;;;;;;5039992;28;20551;-80
2023/01/30 08:01:37;;;;;;;16.42;11.80;;;;;;;;;;5056750;28;20177;-80
2023/01/30 08:04:03;;;;;;;19.10;12.15;;;;;;;;;;5038980;28;20178;-80
2023/01/30 08:06:29;;;;;;;16.25;10.38;;;;;;;;;;5023277;28;20295;-79
2023/01/30 08:08:55;;;;;;;15.68;10.55;;;;;;;;;;5040025;28;20202;-79
2023/01/30 08:11:21;;;;;;;18.00;10.75;;;;;;;;;;5057559;28;20174;-79
2023/01/30 08:13:47;;;;;;;14.32;10.82;;;;;;;;;;5057533;28;20173;-79
2023/01/30 08:16:13;;;;;;;14.55;9.77;;;;;;;;;;5039723;28;20209;-79
2023/01/30 08:18:39;;;;;;;16.13;11.55;;;;;;;;;;5039508;28;20278;-79
2023/01/30 08:21:06;;;;;;;16.43;11.30;;;;;;;;;;5057267;28;20210;-79
2023/01/30 08:23:32;;;;;;;16.60;11.70;;;;;;;;;;5057783;28;20404;-79
2023/01/30 08:25:59;;;;;;;16.05;11.73;;;;;;;;;;5039435;28;20581;-79
2023/01/30 08:28:26;;;;;;;19.15;12.45;;;;;;;;;;5039935;28;20173;-79
2023/01/30 08:30:53;;;;;;;18.35;12.13;;;;;;;;;;5039066;28;20265;-79
2023/01/30 08:33:19;;;;;;;20.15;12.45;;;;;;;;;;5039514;28;20273;-79
2023/01/30 08:35:45;;;;;;;23.70;13.00;;;;;;;;;;5023009;28;20209;-80
2023/01/30 08:38:11;;;;;;;18.20;12.30;;;;;;;;;;5039476;28;20188;-79
2023/01/30 08:40:37;;;;;;;21.65;13.15;;;;;;;;;;5039226;28;20416;-78
2023/01/30 08:43:03;;;;;;;22.23;11.83;;;;;;;;;;5039090;28;20180;-78
2023/01/30 08:45:30;;;;;;;18.38;10.65;;;;;;;;;;5039800;28;20415;-78
2023/01/30 08:47:59;;;;;;;19.17;12.57;;;;;;;;;;5057090;28;20165;-79
2023/01/30 08:50:25;;;;;;;21.65;10.15;;;;;;;;;;5056691;28;20174;-78
2023/01/30 08:52:51;;;;;;;15.55;9.13;;;;;;;;;;5056374;28;20181;-79
2023/01/30 08:55:17;;;;;;;18.20;9.65;;;;;;;;;;5057404;28;20174;-79
2023/01/30 08:57:43;;;;;;;13.18;8.23;;;;;;;;;;5056802;28;20686;-79
2023/01/30 09:00:10;;;;;;;14.25;7.35;;;;;;;;;;5039379;28;20269;-78
2023/01/30 09:02:36;;;;;;;16.17;7.63;;;;;;;;;;5057109;28;20196;-78
2023/01/30 09:05:02;;;;;;;9.60;4.87;;;;;;;;;;5038937;28;20182;-78
2023/01/30 09:07:28;;;;;;;18.58;6.38;;;;;;;;;;5038816;28;20471;-78
2023/01/30 09:09:54;;;;;;;12.10;5.50;;;;;;;;;;5022312;28;20603;-79
2023/01/30 09:12:20;;;;;;;12.73;4.40;;;;;;;;;;5039122;28;20423;-84
2023/01/30 09:14:46;;;;;;;14.15;3.65;;;;;;;;;;5055283;28;20368;-82
2023/01/30 09:17:13;;;;;;;15.17;5.20;;;;;;;;;;5038261;28;20264;-78
2023/01/30 09:19:39;;;;;;;9.10;4.15;;;;;;;;;;5056405;28;20401;-78
2023/01/30 09:22:06;;;;;;;16.00;4.20;;;;;;;;;;5038239;28;20182;-79
2023/01/30 09:24:32;;;;;;;12.52;4.18;;;;;;;;;;5038444;28;20224;-78
2023/01/30 09:26:58;;;;;;;7.10;3.53;;;;;;;;;;5038286;28;20181;-79
2023/01/30 09:29:28;;;;;;;13.82;4.22;;;;;;;;;;5039182;28;20526;-78
2023/01/30 09:31:55;;;;;;;9.60;4.15;;;;;;;;;;5038622;28;20174;-79
2023/01/30 09:34:26;;;;;;;9.18;3.40;;;;;;;;;;5056718;28;20180;-78
2023/01/30 09:36:52;;;;;;;8.52;3.20;;;;;;;;;;5056664;28;20225;-78
2023/01/30 09:39:18;;;;;;;7.70;3.72;;;;;;;;;;5056492;28;20205;-78
2023/01/30 09:41:44;;;;;;;10.68;3.35;;;;;;;;;;5022281;28;20179;-78
2023/01/30 09:44:30;;;;;;;10.83;3.20;;;;;;;;;;5056595;28;20177;-78
2023/01/30 09:47:01;;;;;;;10.48;3.90;;;;;;;;;;5038312;28;20418;-79
2023/01/30 09:49:27;;;;;;;9.95;4.05;;;;;;;;;;5056471;28;20199;-79
2023/01/30 09:51:53;;;;;;;8.30;3.03;;;;;;;;;;5055969;28;20640;-79
2023/01/30 09:54:20;;;;;;;8.57;2.80;;;;;;;;;;5038086;28;20508;-78
2023/01/30 09:56:50;;;;;;;8.15;3.20;;;;;;;;;;5056376;28;20229;-81
2023/01/30 09:59:19;;;;;;;8.85;3.30;;;;;;;;;;5038963;28;20265;-79
2023/01/30 10:02:11;;;;;;;7.07;2.70;;;;;;;;;;5055911;28;20258;-79
2023/01/30 10:04:42;;;;;;;7.78;2.80;;;;;;;;;;5038622;28;20173;-79
2023/01/30 10:07:08;;;;;;;9.45;3.35;;;;;;;;;;5037962;28;20266;-79
2023/01/30 10:09:41;;;;;;;13.80;4.10;;;;;;;;;;5038406;28;20267;-79
2023/01/30 10:12:22;;;;;;;13.52;3.65;;;;;;;;;;5056028;28;20401;-79
2023/01/30 10:14:48;;;;;;;11.82;3.55;;;;;;;;;;5038397;28;20592;-82
2023/01/30 10:17:40;;;;;;;14.27;3.97;;;;;;;;;;5038459;28;20209;-79
2023/01/30 10:20:31;;;;;;;8.38;3.40;;;;;;;;;;5015482;28;20191;-79
2023/01/30 10:23:01;;;;;;;4.88;2.25;;;;;;;;;;5035913;28;20216;-80
2023/01/30 10:25:36;;;;;;;9.43;3.33;;;;;;;;;;5018539;28;20180;-79
2023/01/30 10:28:20;;;;;;;7.22;3.03;;;;;;;;;;5018166;28;20183;-79
2023/01/30 10:30:49;;;;;;;7.32;2.65;;;;;;;;;;5035652;28;20201;-79
2023/01/30 10:33:21;;;;;;;8.02;3.30;;;;;;;;;;5018289;28;20175;-79
2023/01/30 10:35:54;;;;;;;11.98;3.38;;;;;;;;;;5018078;28;20209;-79
2023/01/30 10:38:25;;;;;;;7.78;2.15;;;;;;;;;;5036886;28;20180;-79
2023/01/30 10:41:00;;;;;;;13.52;3.80;;;;;;;;;;5034716;28;20192;-80
2023/01/30 10:43:36;;;;;;;19.92;4.28;;;;;;;;;;5037578;28;20184;-79
2023/01/30 10:46:21;;;;;;;5.13;2.63;;;;;;;;;;5030370;28;20548;-79
2023/01/30 10:48:56;;;;;;;5.10;2.47;;;;;;;;;;5055037;28;20715;-79
2023/01/30 10:51:41;;;;;;;9.85;2.70;;;;;;;;;;5055819;28;20165;-79
2023/01/30 10:54:19;;;;;;;5.97;2.50;;;;;;;;;;5037126;28;20189;-79
2023/01/30 10:56:45;;;;;;;5.13;2.00;;;;;;;;;;5037571;28;20235;-79
2023/01/30 10:59:22;;;;;;;12.33;2.20;;;;;;;;;;5055253;28;20174;-79
2023/01/30 11:01:57;;;;;;;12.98;2.88;;;;;;;;;;5055477;28;20427;-79
2023/01/30 11:04:30;;;;;;;9.35;2.67;;;;;;;;;;5038874;28;20264;-79
2023/01/30 11:06:56;;;;;;;5.75;1.65;;;;;;;;;;5059431;28;20220;-79
2023/01/30 11:09:22;;;;;;;7.90;2.33;;;;;;;;;;5041232;28;20179;-78
2023/01/30 11:11:51;;;;;;;7.22;1.88;;;;;;;;;;5041435;28;20181;-79
2023/01/30 11:14:17;;;;;;;12.40;3.28;;;;;;;;;;5040827;28;20265;-78
2023/01/30 11:16:48;;;;;;;12.70;2.75;;;;;;;;;;5041055;28;20217;-78
2023/01/30 11:19:15;;;;;;;15.48;5.13;;;;;;;;;;5041530;28;20261;-79
2023/01/30 11:21:43;;;;;;;9.30;3.17;;;;;;;;;;5059353;28;20197;-79
2023/01/30 11:24:17;;;;;;;8.45;2.72;;;;;;;;;;5040855;28;20175;-79
2023/01/30 11:26:43;;;;;;;10.13;3.38;;;;;;;;;;5040948;28;20184;-78
2023/01/30 11:29:29;;;;;;;6.25;2.78;;;;;;;;;;5024612;28;20181;-79
2023/01/30 11:31:56;;;;;;;10.40;3.15;;;;;;;;;;5040066;28;20272;-79
2023/01/30 11:34:24;;;;;;;8.02;2.28;;;;;;;;;;5024401;28;20219;-79
2023/01/30 11:36:50;;;;;;;9.23;3.13;;;;;;;;;;5058772;28;20360;-79
2023/01/30 11:39:19;;;;;;;9.20;2.42;;;;;;;;;;5023562;28;20184;-79
2023/01/30 11:41:55;;;;;;;10.10;3.65;;;;;;;;;;5040440;28;20172;-79
2023/01/30 11:44:35;;;;;;;7.63;2.47;;;;;;;;;;5020865;28;20173;-78
2023/01/30 11:47:02;;;;;;;7.57;2.33;;;;;;;;;;5038580;28;20618;-79
2023/01/30 11:49:32;;;;;;;9.88;2.45;;;;;;;;;;5038587;28;20173;-79
2023/01/30 11:51:59;;;;;;;16.38;3.20;;;;;;;;;;5039065;28;20227;-79
2023/01/30 11:54:28;;;;;;;8.82;2.63;;;;;;;;;;5020770;28;20236;-79
2023/01/30 11:56:55;;;;;;;12.43;2.70;;;;;;;;;;5019985;28;20207;-81
2023/01/30 11:59:31;;;;;;;9.68;2.40;;;;;;;;;;5021010;28;20633;-79
2023/01/30 12:02:15;;;;;;;5.97;2.10;;;;;;;;;;5020170;28;20595;-80
2023/01/30 12:04:45;;;;;;;5.85;1.30;;;;;;;;;;5020132;28;20217;-79
2023/01/30 12:07:20;;;;;;;7.93;2.00;;;;;;;;;;5037604;28;20231;-80
2023/01/30 12:09:49;;;;;;;8.35;2.40;;;;;;;;;;5038748;28;20261;-79
2023/01/30 12:12:24;;;;;;;14.88;3.05;;;;;;;;;;5036029;28;20179;-80
2023/01/30 12:14:52;;;;;;;15.07;3.28;;;;;;;;;;5020113;28;20176;-79
2023/01/30 12:17:21;;;;;;;7.45;1.73;;;;;;;;;;5018781;28;20210;-79
2023/01/30 12:19:56;;;;;;;10.00;2.97;;;;;;;;;;5037896;28;20176;-79
2023/01/30 12:22:28;;;;;;;10.70;2.63;;;;;;;;;;5037293;28;20288;-80
2023/01/30 12:24:59;;;;;;;8.18;2.30;;;;;;;;;;5019615;28;20526;-80
2023/01/30 12:27:29;;;;;;;10.35;2.72;;;;;;;;;;5019447;28;20175;-80
2023/01/30 12:30:15;;;;;;;12.95;2.63;;;;;;;;;;5019419;28;20181;-79
2023/01/30 12:32:41;;;;;;;15.15;2.92;;;;;;;;;;5019852;28;20198;-80
2023/01/30 12:35:14;;;;;;;9.23;2.40;;;;;;;;;;5019470;28;20211;-79
2023/01/30 12:37:53;;;;;;;12.85;2.95;;;;;;;;;;5019251;28;20225;-79
2023/01/30 12:40:31;;;;;;;13.00;2.60;;;;;;;;;;5037250;28;20172;-79
2023/01/30 12:43:16;;;;;;;13.30;2.45;;;;;;;;;;5019820;28;20183;-83
2023/01/30 12:45:50;;;;;;;6.95;1.30;;;;;;;;;;5020450;28;20213;-79
2023/01/30 12:48:16;;;;;;;16.80;3.70;;;;;;;;;;5037579;28;20176;-79
2023/01/30 12:51:01;;;;;;;9.13;2.47;;;;;;;;;;5019805;28;20182;-79
2023/01/30 12:53:39;;;;;;;7.88;3.22;;;;;;;;;;5019379;28;20443;-79
2023/01/30 12:56:15;;;;;;;7.00;2.60;;;;;;;;;;5019582;28;20600;-79
2023/01/30 12:58:44;;;;;;;10.07;2.40;;;;;;;;;;5037022;28;20218;-79
2023/01/30 13:01:10;;;;;;;10.57;2.45;;;;;;;;;;5018884;28;20257;-79
2023/01/30 13:03:45;;;;;;;9.13;2.17;;;;;;;;;;5037306;28;20259;-79
2023/01/30 13:06:34;;;;;;;12.90;2.97;;;;;;;;;;5036668;28;20497;-79
2023/01/30 13:09:19;;;;;;;18.92;2.85;;;;;;;;;;5019698;28;20193;-79
2023/01/30 13:11:58;;;;;;;15.30;2.92;;;;;;;;;;5019299;28;20219;-79
2023/01/30 13:14:33;;;;;;;7.90;1.67;;;;;;;;;;5019730;28;20182;-78
2023/01/30 13:17:05;;;;;;;8.48;2.45;;;;;;;;;;5018918;28;20564;-79
2023/01/30 13:19:51;;;;;;;10.40;2.10;;;;;;;;;;5045569;28;20233;-79
2023/01/30 13:22:22;;;;;;;8.98;2.53;;;;;;;;;;5057411;28;20166;-78
2023/01/30 13:24:54;;;;;;;15.98;2.88;;;;;;;;;;5039679;28;20655;-77
2023/01/30 13:27:22;;;;;;;13.20;3.75;;;;;;;;;;5056636;28;20175;-78
2023/01/30 13:29:48;;;;;;;18.60;3.75;;;;;;;;;;5057340;28;20251;-78
2023/01/30 13:32:20;;;;;;;7.47;2.05;;;;;;;;;;5057176;28;20246;-78
2023/01/30 13:34:47;;;;;;;9.93;3.08;;;;;;;;;;5040154;28;20181;-78
2023/01/30 13:37:15;;;;;;;6.22;2.30;;;;;;;;;;5039287;28;20538;-78
2023/01/30 13:40:02;;;;;;;6.50;2.10;;;;;;;;;;5057872;28;20181;-78
2023/01/30 13:42:36;;;;;;;9.38;2.25;;;;;;;;;;5039568;28;20194;-78
2023/01/30 13:45:04;;;;;;;14.18;2.45;;;;;;;;;;5039385;28;20188;-79
2023/01/30 13:47:39;;;;;;;13.85;3.00;;;;;;;;;;5039682;28;20629;-78
2023/01/30 13:50:14;;;;;;;14.13;2.88;;;;;;;;;;5056989;28;20169;-78
2023/01/30 13:52:46;;;;;;;7.45;2.20;;;;;;;;;;5056711;28;20169;-78
2023/01/30 13:55:28;;;;;;;5.60;1.73;;;;;;;;;;5056922;28;20181;-77
2023/01/30 13:58:00;;;;;;;4.82;2.25;;;;;;;;;;5057130;28;20212;-77
2023/01/30 14:00:30;;;;;;;10.80;2.60;;;;;;;;;;5039001;28;20260;-77
2023/01/30 14:03:16;;;;;;;9.65;2.20;;;;;;;;;;5057706;28;20181;-77
2023/01/30 14:05:49;;;;;;;10.63;2.33;;;;;;;;;;5056992;28;20204;-77
2023/01/30 14:08:25;;;;;;;3.25;1.27;;;;;;;;;;5056745;28;20693;-77
2023/01/30 14:10:51;;;;;;;6.32;2.15;;;;;;;;;;5057532;28;20191;-77
2023/01/30 14:13:18;;;;;;;13.60;2.60;;;;;;;;;;5056760;28;20508;-77
2023/01/30 14:16:01;;;;;;;16.15;3.00;;;;;;;;;;5023105;28;20203;-78
2023/01/30 14:18:30;;;;;;;16.63;3.15;;;;;;;;;;5056855;28;20166;-77
2023/01/30 14:21:16;;;;;;;9.77;2.65;;;;;;;;;;5057023;28;20183;-77
2023/01/30 14:23:54;;;;;;;15.68;2.88;;;;;;;;;;5056609;28;20177;-78
2023/01/30 14:26:38;;;;;;;9.73;2.30;;;;;;;;;;5056834;28;20611;-77
2023/01/30 14:29:07;;;;;;;17.83;2.72;;;;;;;;;;5038683;28;20275;-78
2023/01/30 14:31:46;;;;;;;13.40;3.00;;;;;;;;;;5038797;28;20512;-77
2023/01/30 14:34:31;;;;;;;13.15;4.13;;;;;;;;;;5056669;28;20178;-77
2023/01/30 14:36:56;;;;;;;8.85;2.38;;;;;;;;;;5038342;28;20266;-78
2023/01/30 14:39:39;;;;;;;9.03;3.13;;;;;;;;;;5057435;28;20237;-77
2023/01/30 14:42:11;;;;;;;5.57;1.73;;;;;;;;;;5060168;28;20399;-80
2023/01/30 14:44:55;;;;;;;9.18;2.58;;;;;;;;;;5042457;28;20201;-77